sensor_id;sensor_type;location;lat;lon;timestamp;P1;durP1;ratioP1;P2;durP2;ratioP2
75698;SDS011;64313;51.018;13.742;2023-05-07T00:00:42;12.82;;;7.60;;
75698;SDS011;64313;51.018;13.742;2023-05-07T00:03:08;11.38;;;7.05;;
75698;SDS011;64313;51.018;13.742;2023-05-07T00:05:33;11.85;;;6.93;;
75698;SDS011;64313;51.018;13.742;2023-05-07T00:07:58;10.60;;;5.85;;
75698;SDS011;64313;51.018;13.742;2023-05-07T00:10:24;11.27;;;6.30;;
75698;SDS011;64313;51.018;13.742;2023-05-07T00:12:50;12.07;;;6.68;;
75698;SDS011;64313;51.018;13.742;2023-05-07T00:15:15;10.80;;;6.63;;
75698;SDS011;64313;51.018;13.742;2023-05-07T00:17:41;10.88;;;6.25;;
75698;SDS011;64313;51.018;13.742;2023-05-07T00:20:06;14.52;;;7.20;;
75698;SDS011;64313;51.018;13.742;2023-05-07T00:22:32;12.38;;;6.20;;
75698;SDS011;64313;51.018;13.742;2023-05-07T00:24:57;10.15;;;5.90;;
75698;SDS011;64313;51.018;13.742;2023-05-07T00:27:23;10.85;;;6.18;;
75698;SDS011;64313;51.018;13.742;2023-05-07T00:29:49;12.35;;;6.72;;
75698;SDS011;64313;51.018;13.742;2023-05-07T00:32:14;11.80;;;6.50;;
75698;SDS011;64313;51.018;13.742;2023-05-07T00:34:40;12.13;;;7.18;;
75698;SDS011;64313;51.018;13.742;2023-05-07T00:37:05;12.45;;;6.50;;
75698;SDS011;64313;51.018;13.742;2023-05-07T00:39:32;14.52;;;7.93;;
75698;SDS011;64313;51.018;13.742;2023-05-07T00:41:58;10.80;;;6.13;;
75698;SDS011;64313;51.018;13.742;2023-05-07T00:44:25;14.40;;;7.32;;
75698;SDS011;64313;51.018;13.742;2023-05-07T00:46:51;13.43;;;7.00;;
75698;SDS011;64313;51.018;13.742;2023-05-07T00:49:16;11.52;;;6.65;;
75698;SDS011;64313;51.018;13.742;2023-05-07T00:51:43;12.25;;;6.57;;
75698;SDS011;64313;51.018;13.742;2023-05-07T00:54:09;11.98;;;6.20;;
75698;SDS011;64313;51.018;13.742;2023-05-07T00:56:36;15.65;;;7.25;;
75698;SDS011;64313;51.018;13.742;2023-05-07T00:59:02;10.68;;;6.43;;
75698;SDS011;64313;51.018;13.742;2023-05-07T01:01:28;12.38;;;6.90;;
75698;SDS011;64313;51.018;13.742;2023-05-07T01:03:53;13.73;;;7.55;;
75698;SDS011;64313;51.018;13.742;2023-05-07T01:06:19;12.85;;;7.55;;
75698;SDS011;64313;51.018;13.742;2023-05-07T01:08:46;13.52;;;6.75;;
75698;SDS011;64313;51.018;13.742;2023-05-07T01:11:12;11.65;;;7.05;;
75698;SDS011;64313;51.018;13.742;2023-05-07T01:13:39;13.50;;;8.00;;
75698;SDS011;64313;51.018;13.742;2023-05-07T01:16:05;12.15;;;7.07;;
75698;SDS011;64313;51.018;13.742;2023-05-07T01:18:31;11.77;;;7.25;;
75698;SDS011;64313;51.018;13.742;2023-05-07T01:20:58;13.85;;;8.23;;
75698;SDS011;64313;51.018;13.742;2023-05-07T01:23:24;12.73;;;7.50;;
75698;SDS011;64313;51.018;13.742;2023-05-07T01:25:54;14.05;;;7.63;;
75698;SDS011;64313;51.018;13.742;2023-05-07T01:28:21;13.13;;;7.70;;
75698;SDS011;64313;51.018;13.742;2023-05-07T01:30:52;12.35;;;7.40;;
75698;SDS011;64313;51.018;13.742;2023-05-07T01:33:21;14.85;;;8.43;;
75698;SDS011;64313;51.018;13.742;2023-05-07T01:35:48;12.50;;;7.82;;
75698;SDS011;64313;51.018;13.742;2023-05-07T01:38:16;13.13;;;7.15;;
75698;SDS011;64313;51.018;13.742;2023-05-07T01:40:43;12.75;;;7.32;;
75698;SDS011;64313;51.018;13.742;2023-05-07T01:43:09;11.40;;;6.50;;
75698;SDS011;64313;51.018;13.742;2023-05-07T01:45:36;10.98;;;6.32;;
75698;SDS011;64313;51.018;13.742;2023-05-07T01:48:03;11.55;;;6.60;;
75698;SDS011;64313;51.018;13.742;2023-05-07T01:50:29;13.10;;;6.72;;
75698;SDS011;64313;51.018;13.742;2023-05-07T01:52:57;11.35;;;6.80;;
75698;SDS011;64313;51.018;13.742;2023-05-07T01:55:22;11.30;;;6.55;;
75698;SDS011;64313;51.018;13.742;2023-05-07T01:57:48;11.38;;;6.80;;
75698;SDS011;64313;51.018;13.742;2023-05-07T02:00:14;10.70;;;6.30;;
75698;SDS011;64313;51.018;13.742;2023-05-07T02:02:43;12.65;;;7.05;;
75698;SDS011;64313;51.018;13.742;2023-05-07T02:05:19;11.45;;;6.25;;
75698;SDS011;64313;51.018;13.742;2023-05-07T02:07:49;10.82;;;6.13;;
75698;SDS011;64313;51.018;13.742;2023-05-07T02:10:16;13.32;;;6.90;;
75698;SDS011;64313;51.018;13.742;2023-05-07T02:12:41;11.95;;;6.97;;
75698;SDS011;64313;51.018;13.742;2023-05-07T02:15:08;11.05;;;6.65;;
75698;SDS011;64313;51.018;13.742;2023-05-07T02:17:34;11.40;;;6.53;;
75698;SDS011;64313;51.018;13.742;2023-05-07T02:20:00;12.23;;;6.88;;
75698;SDS011;64313;51.018;13.742;2023-05-07T02:22:25;10.38;;;6.55;;
75698;SDS011;64313;51.018;13.742;2023-05-07T02:24:51;10.30;;;6.32;;
75698;SDS011;64313;51.018;13.742;2023-05-07T02:27:16;13.30;;;7.55;;
75698;SDS011;64313;51.018;13.742;2023-05-07T02:29:43;10.93;;;6.85;;
75698;SDS011;64313;51.018;13.742;2023-05-07T02:32:08;10.90;;;7.15;;
75698;SDS011;64313;51.018;13.742;2023-05-07T02:34:33;11.93;;;6.65;;
75698;SDS011;64313;51.018;13.742;2023-05-07T02:36:59;10.77;;;6.38;;
75698;SDS011;64313;51.018;13.742;2023-05-07T02:39:25;11.65;;;7.28;;
75698;SDS011;64313;51.018;13.742;2023-05-07T02:41:51;12.07;;;7.13;;
75698;SDS011;64313;51.018;13.742;2023-05-07T02:44:16;10.95;;;6.68;;
75698;SDS011;64313;51.018;13.742;2023-05-07T02:46:44;10.88;;;6.57;;
75698;SDS011;64313;51.018;13.742;2023-05-07T02:49:11;11.48;;;7.10;;
75698;SDS011;64313;51.018;13.742;2023-05-07T02:51:38;10.50;;;6.50;;
75698;SDS011;64313;51.018;13.742;2023-05-07T02:54:08;13.55;;;7.75;;
75698;SDS011;64313;51.018;13.742;2023-05-07T02:56:34;12.82;;;7.80;;
75698;SDS011;64313;51.018;13.742;2023-05-07T02:58:59;11.05;;;6.63;;
75698;SDS011;64313;51.018;13.742;2023-05-07T03:01:28;10.63;;;6.60;;
75698;SDS011;64313;51.018;13.742;2023-05-07T03:04:01;11.48;;;7.30;;
75698;SDS011;64313;51.018;13.742;2023-05-07T03:06:26;10.82;;;6.85;;
75698;SDS011;64313;51.018;13.742;2023-05-07T03:08:52;11.82;;;6.70;;
75698;SDS011;64313;51.018;13.742;2023-05-07T03:11:17;10.82;;;6.38;;
75698;SDS011;64313;51.018;13.742;2023-05-07T03:13:42;9.73;;;5.88;;
75698;SDS011;64313;51.018;13.742;2023-05-07T03:16:08;9.60;;;5.63;;
75698;SDS011;64313;51.018;13.742;2023-05-07T03:18:33;10.77;;;6.05;;
75698;SDS011;64313;51.018;13.742;2023-05-07T03:20:58;9.85;;;5.43;;
75698;SDS011;64313;51.018;13.742;2023-05-07T03:23:24;10.43;;;5.78;;
75698;SDS011;64313;51.018;13.742;2023-05-07T03:25:49;10.52;;;5.28;;
75698;SDS011;64313;51.018;13.742;2023-05-07T03:28:15;9.10;;;5.13;;
75698;SDS011;64313;51.018;13.742;2023-05-07T03:30:46;9.80;;;4.85;;
75698;SDS011;64313;51.018;13.742;2023-05-07T03:33:12;8.20;;;4.55;;
75698;SDS011;64313;51.018;13.742;2023-05-07T03:35:38;7.88;;;4.55;;
75698;SDS011;64313;51.018;13.742;2023-05-07T03:38:04;8.68;;;4.38;;
75698;SDS011;64313;51.018;13.742;2023-05-07T03:40:32;9.27;;;4.65;;
75698;SDS011;64313;51.018;13.742;2023-05-07T03:42:59;8.45;;;4.43;;
75698;SDS011;64313;51.018;13.742;2023-05-07T03:45:26;8.80;;;4.82;;
75698;SDS011;64313;51.018;13.742;2023-05-07T03:48:02;9.00;;;4.75;;
75698;SDS011;64313;51.018;13.742;2023-05-07T03:50:27;8.77;;;4.43;;
75698;SDS011;64313;51.018;13.742;2023-05-07T03:52:53;8.82;;;4.80;;
75698;SDS011;64313;51.018;13.742;2023-05-07T03:55:22;9.65;;;5.28;;
75698;SDS011;64313;51.018;13.742;2023-05-07T03:57:52;8.55;;;4.63;;
75698;SDS011;64313;51.018;13.742;2023-05-07T04:00:19;9.20;;;4.60;;
75698;SDS011;64313;51.018;13.742;2023-05-07T04:02:47;8.80;;;4.72;;
75698;SDS011;64313;51.018;13.742;2023-05-07T04:05:16;8.43;;;4.53;;
75698;SDS011;64313;51.018;13.742;2023-05-07T04:07:43;9.60;;;4.65;;
75698;SDS011;64313;51.018;13.742;2023-05-07T04:10:10;10.48;;;5.45;;
75698;SDS011;64313;51.018;13.742;2023-05-07T04:12:39;11.05;;;5.68;;
75698;SDS011;64313;51.018;13.742;2023-05-07T04:15:06;10.88;;;5.80;;
75698;SDS011;64313;51.018;13.742;2023-05-07T04:17:32;10.23;;;5.32;;
75698;SDS011;64313;51.018;13.742;2023-05-07T04:19:57;10.23;;;5.45;;
75698;SDS011;64313;51.018;13.742;2023-05-07T04:22:24;10.98;;;5.65;;
75698;SDS011;64313;51.018;13.742;2023-05-07T04:24:49;10.27;;;5.30;;
75698;SDS011;64313;51.018;13.742;2023-05-07T04:27:15;9.90;;;5.40;;
75698;SDS011;64313;51.018;13.742;2023-05-07T04:29:40;10.65;;;5.97;;
75698;SDS011;64313;51.018;13.742;2023-05-07T04:32:10;10.52;;;5.55;;
75698;SDS011;64313;51.018;13.742;2023-05-07T04:34:38;11.18;;;5.18;;
75698;SDS011;64313;51.018;13.742;2023-05-07T04:37:03;10.32;;;5.53;;
75698;SDS011;64313;51.018;13.742;2023-05-07T04:39:29;10.88;;;6.20;;
75698;SDS011;64313;51.018;13.742;2023-05-07T04:41:55;10.68;;;5.63;;
75698;SDS011;64313;51.018;13.742;2023-05-07T04:44:21;10.38;;;6.03;;
75698;SDS011;64313;51.018;13.742;2023-05-07T04:46:47;12.02;;;6.00;;
75698;SDS011;64313;51.018;13.742;2023-05-07T04:49:13;10.05;;;5.35;;
75698;SDS011;64313;51.018;13.742;2023-05-07T04:51:38;9.52;;;5.03;;
75698;SDS011;64313;51.018;13.742;2023-05-07T04:54:04;11.52;;;5.47;;
75698;SDS011;64313;51.018;13.742;2023-05-07T04:56:30;10.32;;;5.68;;
75698;SDS011;64313;51.018;13.742;2023-05-07T04:58:57;11.18;;;6.40;;
75698;SDS011;64313;51.018;13.742;2023-05-07T05:01:23;10.85;;;5.72;;
75698;SDS011;64313;51.018;13.742;2023-05-07T05:03:48;11.27;;;6.03;;
75698;SDS011;64313;51.018;13.742;2023-05-07T05:06:14;10.32;;;5.70;;
75698;SDS011;64313;51.018;13.742;2023-05-07T05:08:40;10.90;;;5.35;;
75698;SDS011;64313;51.018;13.742;2023-05-07T05:11:05;10.90;;;5.70;;
75698;SDS011;64313;51.018;13.742;2023-05-07T05:13:33;12.23;;;6.18;;
75698;SDS011;64313;51.018;13.742;2023-05-07T05:16:01;11.70;;;6.65;;
75698;SDS011;64313;51.018;13.742;2023-05-07T05:18:28;12.95;;;5.10;;
75698;SDS011;64313;51.018;13.742;2023-05-07T05:20:54;10.13;;;5.68;;
75698;SDS011;64313;51.018;13.742;2023-05-07T05:23:20;10.63;;;5.13;;
75698;SDS011;64313;51.018;13.742;2023-05-07T05:25:46;9.75;;;5.15;;
75698;SDS011;64313;51.018;13.742;2023-05-07T05:28:13;9.27;;;4.95;;
75698;SDS011;64313;51.018;13.742;2023-05-07T05:30:39;8.93;;;5.05;;
75698;SDS011;64313;51.018;13.742;2023-05-07T05:33:04;11.15;;;5.32;;
75698;SDS011;64313;51.018;13.742;2023-05-07T05:35:30;8.98;;;4.82;;
75698;SDS011;64313;51.018;13.742;2023-05-07T05:37:56;10.05;;;5.20;;
75698;SDS011;64313;51.018;13.742;2023-05-07T05:40:22;11.20;;;5.53;;
75698;SDS011;64313;51.018;13.742;2023-05-07T05:42:47;10.40;;;5.70;;
75698;SDS011;64313;51.018;13.742;2023-05-07T05:45:14;10.52;;;5.35;;
75698;SDS011;64313;51.018;13.742;2023-05-07T05:47:41;11.20;;;5.63;;
75698;SDS011;64313;51.018;13.742;2023-05-07T05:50:06;10.73;;;5.55;;
75698;SDS011;64313;51.018;13.742;2023-05-07T05:52:32;10.50;;;5.15;;
75698;SDS011;64313;51.018;13.742;2023-05-07T05:54:57;9.77;;;5.20;;
75698;SDS011;64313;51.018;13.742;2023-05-07T05:57:24;11.18;;;6.25;;
75698;SDS011;64313;51.018;13.742;2023-05-07T05:59:50;11.25;;;5.93;;
75698;SDS011;64313;51.018;13.742;2023-05-07T06:02:15;9.95;;;5.90;;
75698;SDS011;64313;51.018;13.742;2023-05-07T06:04:41;9.93;;;5.32;;
75698;SDS011;64313;51.018;13.742;2023-05-07T06:07:08;11.23;;;4.93;;
75698;SDS011;64313;51.018;13.742;2023-05-07T06:09:33;10.68;;;5.05;;
75698;SDS011;64313;51.018;13.742;2023-05-07T06:12:00;10.45;;;5.10;;
75698;SDS011;64313;51.018;13.742;2023-05-07T06:14:25;9.82;;;5.10;;
75698;SDS011;64313;51.018;13.742;2023-05-07T06:16:51;9.07;;;4.43;;
75698;SDS011;64313;51.018;13.742;2023-05-07T06:19:16;8.30;;;4.13;;
75698;SDS011;64313;51.018;13.742;2023-05-07T06:21:43;9.77;;;4.57;;
75698;SDS011;64313;51.018;13.742;2023-05-07T06:24:09;8.82;;;4.75;;
75698;SDS011;64313;51.018;13.742;2023-05-07T06:26:37;9.52;;;4.63;;
75698;SDS011;64313;51.018;13.742;2023-05-07T06:29:02;9.85;;;4.25;;
75698;SDS011;64313;51.018;13.742;2023-05-07T06:31:29;8.38;;;3.90;;
75698;SDS011;64313;51.018;13.742;2023-05-07T06:34:02;7.63;;;3.72;;
75698;SDS011;64313;51.018;13.742;2023-05-07T06:36:32;7.25;;;3.72;;
75698;SDS011;64313;51.018;13.742;2023-05-07T06:39:01;8.23;;;4.10;;
75698;SDS011;64313;51.018;13.742;2023-05-07T06:41:27;7.28;;;3.55;;
75698;SDS011;64313;51.018;13.742;2023-05-07T06:43:54;8.00;;;4.13;;
75698;SDS011;64313;51.018;13.742;2023-05-07T06:46:28;8.25;;;4.05;;
75698;SDS011;64313;51.018;13.742;2023-05-07T06:48:54;6.88;;;3.58;;
75698;SDS011;64313;51.018;13.742;2023-05-07T06:51:19;7.05;;;3.53;;
75698;SDS011;64313;51.018;13.742;2023-05-07T06:53:45;7.68;;;3.78;;
75698;SDS011;64313;51.018;13.742;2023-05-07T06:56:10;6.70;;;3.47;;
75698;SDS011;64313;51.018;13.742;2023-05-07T06:58:38;8.40;;;3.67;;
75698;SDS011;64313;51.018;13.742;2023-05-07T07:01:04;7.43;;;3.42;;
75698;SDS011;64313;51.018;13.742;2023-05-07T07:03:31;6.50;;;3.17;;
75698;SDS011;64313;51.018;13.742;2023-05-07T07:05:56;7.50;;;3.25;;
75698;SDS011;64313;51.018;13.742;2023-05-07T07:08:22;11.63;;;3.70;;
75698;SDS011;64313;51.018;13.742;2023-05-07T07:10:49;6.60;;;3.50;;
75698;SDS011;64313;51.018;13.742;2023-05-07T07:13:14;6.95;;;3.50;;
75698;SDS011;64313;51.018;13.742;2023-05-07T07:15:40;6.68;;;3.53;;
75698;SDS011;64313;51.018;13.742;2023-05-07T07:18:05;7.38;;;3.50;;
75698;SDS011;64313;51.018;13.742;2023-05-07T07:20:31;7.70;;;3.63;;
75698;SDS011;64313;51.018;13.742;2023-05-07T07:22:57;7.50;;;3.95;;
75698;SDS011;64313;51.018;13.742;2023-05-07T07:25:22;7.30;;;3.63;;
75698;SDS011;64313;51.018;13.742;2023-05-07T07:27:49;8.23;;;3.78;;
75698;SDS011;64313;51.018;13.742;2023-05-07T07:30:15;7.70;;;3.90;;
75698;SDS011;64313;51.018;13.742;2023-05-07T07:32:44;7.95;;;4.25;;
75698;SDS011;64313;51.018;13.742;2023-05-07T07:35:10;9.05;;;3.80;;
75698;SDS011;64313;51.018;13.742;2023-05-07T07:37:36;8.55;;;3.85;;
75698;SDS011;64313;51.018;13.742;2023-05-07T07:40:01;7.63;;;3.92;;
75698;SDS011;64313;51.018;13.742;2023-05-07T07:42:28;8.02;;;4.07;;
75698;SDS011;64313;51.018;13.742;2023-05-07T07:44:57;7.32;;;3.70;;
75698;SDS011;64313;51.018;13.742;2023-05-07T07:47:29;7.13;;;3.47;;
75698;SDS011;64313;51.018;13.742;2023-05-07T07:49:54;6.57;;;3.17;;
75698;SDS011;64313;51.018;13.742;2023-05-07T07:52:20;5.70;;;3.10;;
75698;SDS011;64313;51.018;13.742;2023-05-07T07:54:54;6.68;;;3.25;;
75698;SDS011;64313;51.018;13.742;2023-05-07T07:57:20;6.70;;;2.65;;
75698;SDS011;64313;51.018;13.742;2023-05-07T07:59:46;5.57;;;2.67;;
75698;SDS011;64313;51.018;13.742;2023-05-07T08:02:13;5.93;;;2.97;;
75698;SDS011;64313;51.018;13.742;2023-05-07T08:04:38;5.72;;;2.80;;
75698;SDS011;64313;51.018;13.742;2023-05-07T08:07:06;5.85;;;2.97;;
75698;SDS011;64313;51.018;13.742;2023-05-07T08:09:34;5.63;;;2.83;;
75698;SDS011;64313;51.018;13.742;2023-05-07T08:12:01;5.90;;;3.08;;
75698;SDS011;64313;51.018;13.742;2023-05-07T08:14:30;6.35;;;3.10;;
75698;SDS011;64313;51.018;13.742;2023-05-07T08:16:55;5.45;;;2.72;;
75698;SDS011;64313;51.018;13.742;2023-05-07T08:19:22;5.38;;;2.83;;
75698;SDS011;64313;51.018;13.742;2023-05-07T08:21:48;5.38;;;2.63;;
75698;SDS011;64313;51.018;13.742;2023-05-07T08:24:14;5.63;;;2.80;;
75698;SDS011;64313;51.018;13.742;2023-05-07T08:26:40;5.65;;;2.70;;
75698;SDS011;64313;51.018;13.742;2023-05-07T08:29:07;6.40;;;2.85;;
75698;SDS011;64313;51.018;13.742;2023-05-07T08:31:33;5.10;;;2.70;;
75698;SDS011;64313;51.018;13.742;2023-05-07T08:33:58;5.75;;;2.70;;
75698;SDS011;64313;51.018;13.742;2023-05-07T08:36:27;4.72;;;2.20;;
75698;SDS011;64313;51.018;13.742;2023-05-07T08:38:53;4.40;;;2.30;;
75698;SDS011;64313;51.018;13.742;2023-05-07T08:41:20;5.10;;;2.55;;
75698;SDS011;64313;51.018;13.742;2023-05-07T08:43:47;4.70;;;2.50;;
75698;SDS011;64313;51.018;13.742;2023-05-07T08:46:19;4.47;;;2.17;;
75698;SDS011;64313;51.018;13.742;2023-05-07T08:51:15;4.90;;;2.22;;
75698;SDS011;64313;51.018;13.742;2023-05-07T08:53:46;4.28;;;2.20;;
75698;SDS011;64313;51.018;13.742;2023-05-07T08:56:20;4.97;;;2.20;;
75698;SDS011;64313;51.018;13.742;2023-05-07T08:58:47;4.28;;;2.20;;
75698;SDS011;64313;51.018;13.742;2023-05-07T09:01:13;5.60;;;2.80;;
75698;SDS011;64313;51.018;13.742;2023-05-07T09:03:40;5.65;;;2.88;;
75698;SDS011;64313;51.018;13.742;2023-05-07T09:06:08;5.40;;;2.70;;
75698;SDS011;64313;51.018;13.742;2023-05-07T09:08:34;5.35;;;2.83;;
75698;SDS011;64313;51.018;13.742;2023-05-07T09:11:02;6.03;;;2.63;;
75698;SDS011;64313;51.018;13.742;2023-05-07T09:13:28;6.18;;;3.38;;
75698;SDS011;64313;51.018;13.742;2023-05-07T09:15:54;6.03;;;3.25;;
75698;SDS011;64313;51.018;13.742;2023-05-07T09:18:23;7.32;;;3.30;;
75698;SDS011;64313;51.018;13.742;2023-05-07T09:20:49;6.20;;;3.53;;
75698;SDS011;64313;51.018;13.742;2023-05-07T09:23:18;7.70;;;3.85;;
75698;SDS011;64313;51.018;13.742;2023-05-07T09:25:43;6.30;;;3.28;;
75698;SDS011;64313;51.018;13.742;2023-05-07T09:28:15;6.25;;;3.50;;
75698;SDS011;64313;51.018;13.742;2023-05-07T09:30:40;5.68;;;3.38;;
75698;SDS011;64313;51.018;13.742;2023-05-07T09:33:08;6.95;;;3.38;;
75698;SDS011;64313;51.018;13.742;2023-05-07T09:35:37;8.13;;;4.55;;
75698;SDS011;64313;51.018;13.742;2023-05-07T09:38:07;9.05;;;4.20;;
75698;SDS011;64313;51.018;13.742;2023-05-07T09:40:35;6.80;;;3.55;;
75698;SDS011;64313;51.018;13.742;2023-05-07T09:43:13;7.93;;;3.78;;
75698;SDS011;64313;51.018;13.742;2023-05-07T09:45:48;7.13;;;3.67;;
75698;SDS011;64313;51.018;13.742;2023-05-07T09:48:16;7.55;;;4.25;;
75698;SDS011;64313;51.018;13.742;2023-05-07T09:50:48;6.57;;;3.50;;
75698;SDS011;64313;51.018;13.742;2023-05-07T09:53:18;6.40;;;3.60;;
75698;SDS011;64313;51.018;13.742;2023-05-07T09:55:45;6.47;;;3.65;;
75698;SDS011;64313;51.018;13.742;2023-05-07T09:58:12;6.85;;;3.83;;
75698;SDS011;64313;51.018;13.742;2023-05-07T10:00:37;7.93;;;3.83;;
75698;SDS011;64313;51.018;13.742;2023-05-07T10:03:09;6.28;;;3.47;;
75698;SDS011;64313;51.018;13.742;2023-05-07T10:05:42;5.75;;;3.22;;
75698;SDS011;64313;51.018;13.742;2023-05-07T10:08:10;5.88;;;3.33;;
75698;SDS011;64313;51.018;13.742;2023-05-07T10:10:37;7.55;;;3.60;;
75698;SDS011;64313;51.018;13.742;2023-05-07T10:13:06;6.32;;;3.88;;
75698;SDS011;64313;51.018;13.742;2023-05-07T10:15:36;7.25;;;4.43;;
75698;SDS011;64313;51.018;13.742;2023-05-07T10:18:03;7.07;;;3.92;;
75698;SDS011;64313;51.018;13.742;2023-05-07T10:20:29;6.70;;;4.00;;
75698;SDS011;64313;51.018;13.742;2023-05-07T10:22:56;7.10;;;3.95;;
75698;SDS011;64313;51.018;13.742;2023-05-07T10:25:30;5.68;;;3.65;;
75698;SDS011;64313;51.018;13.742;2023-05-07T10:28:05;5.90;;;3.55;;
75698;SDS011;64313;51.018;13.742;2023-05-07T10:30:38;7.63;;;3.70;;
75698;SDS011;64313;51.018;13.742;2023-05-07T10:33:16;6.55;;;3.80;;
75698;SDS011;64313;51.018;13.742;2023-05-07T10:35:46;6.82;;;3.75;;
75698;SDS011;64313;51.018;13.742;2023-05-07T10:38:13;7.38;;;4.10;;
75698;SDS011;64313;51.018;13.742;2023-05-07T10:40:41;6.03;;;3.72;;
75698;SDS011;64313;51.018;13.742;2023-05-07T10:43:10;8.07;;;4.78;;
75698;SDS011;64313;51.018;13.742;2023-05-07T10:45:41;7.30;;;4.70;;
75698;SDS011;64313;51.018;13.742;2023-05-07T10:48:14;8.15;;;4.80;;
75698;SDS011;64313;51.018;13.742;2023-05-07T10:50:43;6.63;;;4.13;;
75698;SDS011;64313;51.018;13.742;2023-05-07T10:55:49;7.15;;;4.18;;
75698;SDS011;64313;51.018;13.742;2023-05-07T11:00:49;6.53;;;4.15;;
75698;SDS011;64313;51.018;13.742;2023-05-07T11:03:24;6.60;;;4.05;;
75698;SDS011;64313;51.018;13.742;2023-05-07T11:06:08;6.80;;;4.00;;
75698;SDS011;64313;51.018;13.742;2023-05-07T11:11:49;6.88;;;4.07;;
75698;SDS011;64313;51.018;13.742;2023-05-07T11:17:09;6.95;;;4.00;;
75698;SDS011;64313;51.018;13.742;2023-05-07T11:19:51;6.47;;;3.88;;
75698;SDS011;64313;51.018;13.742;2023-05-07T11:25:19;5.93;;;3.60;;
75698;SDS011;64313;51.018;13.742;2023-05-07T11:27:54;5.88;;;3.55;;
75698;SDS011;64313;51.018;13.742;2023-05-07T11:30:20;6.13;;;3.50;;
75698;SDS011;64313;51.018;13.742;2023-05-07T11:32:47;5.72;;;3.47;;
75698;SDS011;64313;51.018;13.742;2023-05-07T11:35:15;5.82;;;3.42;;
75698;SDS011;64313;51.018;13.742;2023-05-07T11:37:41;5.90;;;3.45;;
75698;SDS011;64313;51.018;13.742;2023-05-07T11:40:09;5.90;;;3.28;;
75698;SDS011;64313;51.018;13.742;2023-05-07T11:42:36;6.20;;;3.40;;
75698;SDS011;64313;51.018;13.742;2023-05-07T11:45:03;5.68;;;3.42;;
75698;SDS011;64313;51.018;13.742;2023-05-07T11:47:29;6.55;;;3.63;;
75698;SDS011;64313;51.018;13.742;2023-05-07T11:49:56;5.95;;;3.60;;
75698;SDS011;64313;51.018;13.742;2023-05-07T11:52:22;6.82;;;3.42;;
75698;SDS011;64313;51.018;13.742;2023-05-07T11:54:49;5.70;;;3.72;;
75698;SDS011;64313;51.018;13.742;2023-05-07T11:57:15;6.50;;;3.75;;
75698;SDS011;64313;51.018;13.742;2023-05-07T11:59:41;7.20;;;4.18;;
75698;SDS011;64313;51.018;13.742;2023-05-07T12:02:09;6.13;;;3.58;;
75698;SDS011;64313;51.018;13.742;2023-05-07T12:04:35;6.05;;;3.85;;
75698;SDS011;64313;51.018;13.742;2023-05-07T12:07:01;5.72;;;3.45;;
75698;SDS011;64313;51.018;13.742;2023-05-07T12:09:26;6.72;;;3.75;;
75698;SDS011;64313;51.018;13.742;2023-05-07T12:11:52;6.68;;;4.00;;
75698;SDS011;64313;51.018;13.742;2023-05-07T12:14:17;6.00;;;3.53;;
75698;SDS011;64313;51.018;13.742;2023-05-07T12:16:43;7.88;;;4.18;;
75698;SDS011;64313;51.018;13.742;2023-05-07T12:19:10;6.20;;;3.75;;
75698;SDS011;64313;51.018;13.742;2023-05-07T12:21:37;6.80;;;4.22;;
75698;SDS011;64313;51.018;13.742;2023-05-07T12:24:04;7.15;;;4.38;;
75698;SDS011;64313;51.018;13.742;2023-05-07T12:26:30;7.03;;;4.20;;
75698;SDS011;64313;51.018;13.742;2023-05-07T12:28:56;7.03;;;4.25;;
75698;SDS011;64313;51.018;13.742;2023-05-07T12:31:22;6.72;;;3.55;;
75698;SDS011;64313;51.018;13.742;2023-05-07T12:33:48;7.20;;;4.18;;
75698;SDS011;64313;51.018;13.742;2023-05-07T12:36:13;7.88;;;4.05;;
75698;SDS011;64313;51.018;13.742;2023-05-07T12:38:38;7.07;;;4.20;;
75698;SDS011;64313;51.018;13.742;2023-05-07T12:41:06;6.65;;;3.72;;
75698;SDS011;64313;51.018;13.742;2023-05-07T12:43:32;5.85;;;3.58;;
75698;SDS011;64313;51.018;13.742;2023-05-07T12:46:02;7.47;;;4.13;;
75698;SDS011;64313;51.018;13.742;2023-05-07T12:48:29;6.22;;;4.03;;
75698;SDS011;64313;51.018;13.742;2023-05-07T12:50:55;7.35;;;3.92;;
75698;SDS011;64313;51.018;13.742;2023-05-07T12:53:22;6.88;;;3.97;;
75698;SDS011;64313;51.018;13.742;2023-05-07T12:55:54;6.88;;;4.07;;
75698;SDS011;64313;51.018;13.742;2023-05-07T12:58:25;7.68;;;4.18;;
75698;SDS011;64313;51.018;13.742;2023-05-07T13:03:25;6.50;;;3.97;;
75698;SDS011;64313;51.018;13.742;2023-05-07T13:05:55;5.70;;;3.50;;
75698;SDS011;64313;51.018;13.742;2023-05-07T13:08:23;7.72;;;3.92;;
75698;SDS011;64313;51.018;13.742;2023-05-07T13:10:53;7.13;;;3.90;;
75698;SDS011;64313;51.018;13.742;2023-05-07T13:13:19;6.18;;;3.70;;
75698;SDS011;64313;51.018;13.742;2023-05-07T13:15:45;7.50;;;3.75;;
75698;SDS011;64313;51.018;13.742;2023-05-07T13:18:11;6.30;;;3.70;;
75698;SDS011;64313;51.018;13.742;2023-05-07T13:20:36;7.03;;;4.10;;
75698;SDS011;64313;51.018;13.742;2023-05-07T13:23:02;6.35;;;3.95;;
75698;SDS011;64313;51.018;13.742;2023-05-07T13:25:29;6.28;;;3.65;;
75698;SDS011;64313;51.018;13.742;2023-05-07T13:27:56;6.25;;;3.72;;
75698;SDS011;64313;51.018;13.742;2023-05-07T13:30:21;5.32;;;3.20;;
75698;SDS011;64313;51.018;13.742;2023-05-07T13:32:47;6.28;;;3.83;;
75698;SDS011;64313;51.018;13.742;2023-05-07T13:35:12;6.90;;;4.30;;
75698;SDS011;64313;51.018;13.742;2023-05-07T13:37:38;5.75;;;3.47;;
75698;SDS011;64313;51.018;13.742;2023-05-07T13:40:03;5.90;;;3.60;;
75698;SDS011;64313;51.018;13.742;2023-05-07T13:42:29;6.82;;;3.85;;
75698;SDS011;64313;51.018;13.742;2023-05-07T13:44:56;6.85;;;3.60;;
75698;SDS011;64313;51.018;13.742;2023-05-07T13:47:22;6.22;;;3.78;;
75698;SDS011;64313;51.018;13.742;2023-05-07T13:49:47;5.70;;;3.60;;
75698;SDS011;64313;51.018;13.742;2023-05-07T13:52:16;7.78;;;3.55;;
75698;SDS011;64313;51.018;13.742;2023-05-07T13:54:41;6.13;;;3.40;;
75698;SDS011;64313;51.018;13.742;2023-05-07T13:57:07;6.72;;;3.75;;
75698;SDS011;64313;51.018;13.742;2023-05-07T13:59:33;5.47;;;3.28;;
75698;SDS011;64313;51.018;13.742;2023-05-07T14:01:58;7.20;;;3.80;;
75698;SDS011;64313;51.018;13.742;2023-05-07T14:04:23;6.43;;;3.70;;
75698;SDS011;64313;51.018;13.742;2023-05-07T14:06:49;5.88;;;3.30;;
75698;SDS011;64313;51.018;13.742;2023-05-07T14:09:14;6.22;;;3.80;;
75698;SDS011;64313;51.018;13.742;2023-05-07T14:11:40;5.97;;;3.35;;
75698;SDS011;64313;51.018;13.742;2023-05-07T14:14:05;6.05;;;3.63;;
75698;SDS011;64313;51.018;13.742;2023-05-07T14:16:30;5.43;;;2.97;;
75698;SDS011;64313;51.018;13.742;2023-05-07T14:18:56;5.93;;;3.35;;
75698;SDS011;64313;51.018;13.742;2023-05-07T14:21:21;6.65;;;3.45;;
75698;SDS011;64313;51.018;13.742;2023-05-07T14:23:46;6.53;;;3.78;;
75698;SDS011;64313;51.018;13.742;2023-05-07T14:26:12;5.35;;;3.40;;
75698;SDS011;64313;51.018;13.742;2023-05-07T14:28:37;5.32;;;3.10;;
75698;SDS011;64313;51.018;13.742;2023-05-07T14:31:04;5.25;;;3.05;;
75698;SDS011;64313;51.018;13.742;2023-05-07T14:33:30;4.82;;;2.78;;
75698;SDS011;64313;51.018;13.742;2023-05-07T14:35:55;5.68;;;2.75;;
75698;SDS011;64313;51.018;13.742;2023-05-07T14:38:20;5.47;;;2.65;;
75698;SDS011;64313;51.018;13.742;2023-05-07T14:40:46;5.40;;;2.58;;
75698;SDS011;64313;51.018;13.742;2023-05-07T14:43:12;4.68;;;2.58;;
75698;SDS011;64313;51.018;13.742;2023-05-07T14:45:37;4.90;;;2.70;;
75698;SDS011;64313;51.018;13.742;2023-05-07T14:48:03;5.68;;;2.67;;